Diomede, Alaska
Current Conditions -  °F | °C
As of 8:58 AM on Saturday 20 Dec 2014 (Local Time) from PATE Reporting Station
Clear Clear  
Wind Chill: -14°   Ceiling: Unl
Heat Index:   Visibility: 10mi
Dew Point:   Wind: 21mph
Humidity: 87%   Direction: 10°N
Pressure: 29.38"   Gusts: 26mph
Location:  65.1617°N, 164.975°W
Report Text: PATE 201758Z AUTO 01018G23KT 10SM CLR M14/M16 A2938 RMK AO2 SLP962 T11441161 11122 21144 58002 FZRANO
Loading
Personal Weather Stations






























Interactive Weather Map New forecast layout! Learn more

10-Day Weather Forecast

Advertisements
Track Severe Weather on mobile